Time;durP1;ratioP1;P1;durP2;ratioP2;P2;SDS_P1;SDS_P2;PMS_P1;PMS_P2;Temp;Humidity;BMP_temperature;BMP_pressure;BME280_temperature;BME280_humidity;BME280_pressure;Samples;Min_cycle;Max_cycle;Signal;HPM_P1;HPM_P2
2021/09/28 00:00:51;;;;;;;2.97;2.57;;;16.80;99.90;;;;;;6001832;23;20557;-67
2021/09/28 00:03:19;;;;;;;4.20;2.40;;;16.80;99.90;;;;;;5999714;23;20527;-66
2021/09/28 00:05:45;;;;;;;2.63;2.10;;;16.70;99.90;;;;;;6001326;23;20530;-67
2021/09/28 00:08:11;;;;;;;4.03;2.40;;;16.70;99.90;;;;;;6001829;23;20568;-67
2021/09/28 00:10:44;;;;;;;4.73;2.80;;;16.60;99.90;;;;;;6003075;23;20248;-67
2021/09/28 00:13:12;;;;;;;2.97;2.57;;;16.70;99.90;;;;;;6001508;23;20156;-67
2021/09/28 00:15:40;;;;;;;4.20;2.30;;;16.60;99.90;;;;;;6002034;23;21097;-67
2021/09/28 00:18:06;;;;;;;3.83;2.37;;;16.60;99.90;;;;;;6001429;23;21272;-67
2021/09/28 00:20:37;;;;;;;3.43;2.20;;;16.60;99.90;;;;;;6002391;23;20593;-67
2021/09/28 00:23:07;;;;;;;3.13;2.70;;;16.50;99.90;;;;;;6001651;23;20193;-67
2021/09/28 00:25:33;;;;;;;5.63;2.97;;;16.60;99.90;;;;;;6000743;23;20550;-67
2021/09/28 00:28:01;;;;;;;7.13;3.50;;;16.50;99.90;;;;;;6002436;23;20665;-67
2021/09/28 00:30:30;;;;;;;4.80;3.10;;;16.50;99.90;;;;;;6002389;23;20161;-66
2021/09/28 00:32:55;;;;;;;4.13;2.67;;;16.50;99.90;;;;;;6002308;23;20680;-66
2021/09/28 00:35:21;;;;;;;3.37;3.07;;;16.40;99.90;;;;;;5974244;23;20574;-66
2021/09/28 00:37:46;;;;;;;5.37;3.00;;;16.50;99.90;;;;;;6001638;23;20257;-66
2021/09/28 00:40:14;;;;;;;4.40;3.13;;;16.40;99.90;;;;;;6002877;23;20271;-66
2021/09/28 00:42:40;;;;;;;4.63;2.87;;;16.40;99.90;;;;;;6001111;23;20212;-66
2021/09/28 00:45:09;;;;;;;6.43;3.70;;;16.30;99.90;;;;;;6001249;23;20546;-66
2021/09/28 00:47:38;;;;;;;4.03;3.33;;;16.40;99.90;;;;;;5975509;23;20208;-66
2021/09/28 00:50:04;;;;;;;4.80;3.30;;;16.40;99.90;;;;;;6002813;23;20545;-66
2021/09/28 00:52:33;;;;;;;8.87;3.50;;;16.30;99.90;;;;;;6001396;23;20978;-66
2021/09/28 00:54:58;;;;;;;4.03;3.13;;;16.30;99.90;;;;;;5975678;23;20577;-66
2021/09/28 00:57:24;;;;;;;5.53;3.50;;;16.30;99.90;;;;;;6001151;23;20648;-66
2021/09/28 00:59:52;;;;;;;4.43;3.40;;;16.20;99.90;;;;;;6001938;23;20213;-66
2021/09/28 01:02:17;;;;;;;4.70;3.30;;;16.20;99.90;;;;;;6002019;23;20232;-66
2021/09/28 01:04:43;;;;;;;4.70;2.90;;;16.30;99.90;;;;;;6000007;23;21005;-67
2021/09/28 01:07:10;;;;;;;3.50;3.17;;;16.20;99.90;;;;;;6000631;23;20213;-66
2021/09/28 01:09:39;;;;;;;7.20;3.50;;;16.20;99.90;;;;;;5977760;23;20252;-66
2021/09/28 01:12:05;;;;;;;5.27;3.60;;;16.20;99.90;;;;;;6002783;23;20714;-66
2021/09/28 01:14:31;;;;;;;7.43;4.07;;;16.20;99.90;;;;;;5978632;23;20565;-67
2021/09/28 01:16:56;;;;;;;5.50;3.40;;;16.10;99.90;;;;;;6002231;23;20693;-66
2021/09/28 01:19:22;;;;;;;6.00;3.80;;;16.10;99.90;;;;;;6002532;23;20165;-66
2021/09/28 01:21:48;;;;;;;4.00;3.40;;;16.10;99.90;;;;;;6003063;23;20209;-66
2021/09/28 01:24:14;;;;;;;6.50;3.97;;;16.10;99.90;;;;;;5976717;23;20188;-66
2021/09/28 01:26:40;;;;;;;7.33;3.47;;;16.00;99.90;;;;;;6002078;23;20204;-66
2021/09/28 01:29:07;;;;;;;5.97;3.20;;;16.00;99.90;;;;;;6003656;23;20633;-66
2021/09/28 01:31:38;;;;;;;5.37;3.50;;;16.00;99.90;;;;;;6002688;23;20556;-66
2021/09/28 01:34:04;;;;;;;5.03;3.83;;;15.90;99.90;;;;;;6003733;23;20506;-66
2021/09/28 01:36:30;;;;;;;7.50;4.00;;;15.90;99.90;;;;;;5976572;23;20597;-66
2021/09/28 01:38:57;;;;;;;6.23;3.80;;;15.90;99.90;;;;;;5978292;23;20593;-66
2021/09/28 01:41:23;;;;;;;5.60;3.80;;;15.90;99.90;;;;;;6003651;23;20213;-66
2021/09/28 01:43:48;;;;;;;5.13;3.60;;;15.80;99.90;;;;;;5996898;23;20889;-68
2021/09/28 01:46:14;;;;;;;4.60;3.50;;;15.90;99.90;;;;;;6022178;23;20824;-68
2021/09/28 01:48:48;;;;;;;3.47;3.17;;;15.90;99.90;;;;;;6007265;23;20235;-66
2021/09/28 01:51:14;;;;;;;4.60;3.27;;;15.80;99.90;;;;;;6005179;23;20164;-66
2021/09/28 01:53:42;;;;;;;5.53;3.70;;;15.90;99.90;;;;;;5979717;23;20600;-69
2021/09/28 01:56:26;;;;;;;3.50;3.20;;;15.80;99.90;;;;;;6002181;23;20231;-68
2021/09/28 01:58:57;;;;;;;8.40;3.97;;;15.80;99.90;;;;;;6004061;23;20569;-67
2021/09/28 02:01:22;;;;;;;6.00;4.10;;;15.80;99.90;;;;;;6002253;23;20552;-66
2021/09/28 02:03:51;;;;;;;7.60;3.80;;;15.80;99.90;;;;;;6001667;23;20688;-66
2021/09/28 02:06:20;;;;;;;3.87;3.50;;;15.80;99.90;;;;;;6000116;23;20200;-66
2021/09/28 02:08:46;;;;;;;7.20;3.63;;;15.80;99.90;;;;;;6001896;23;21099;-66
2021/09/28 02:11:11;;;;;;;3.93;3.33;;;15.80;99.90;;;;;;5977917;23;20597;-67
2021/09/28 02:13:37;;;;;;;5.20;3.30;;;15.80;99.90;;;;;;6003935;23;20243;-67
2021/09/28 02:16:04;;;;;;;6.03;3.77;;;15.70;99.90;;;;;;6002548;23;20208;-66
2021/09/28 02:18:29;;;;;;;4.73;4.23;;;15.70;99.90;;;;;;6002546;23;20595;-66
2021/09/28 02:20:55;;;;;;;3.80;3.50;;;15.70;99.90;;;;;;6003558;23;21065;-66
2021/09/28 02:23:20;;;;;;;5.80;4.63;;;15.70;99.90;;;;;;6004189;23;20264;-66
2021/09/28 02:25:48;;;;;;;5.60;3.57;;;15.60;99.90;;;;;;6002340;23;20205;-66
2021/09/28 02:28:14;;;;;;;5.33;4.10;;;15.60;99.90;;;;;;6003117;23;20269;-66
2021/09/28 02:30:40;;;;;;;6.53;3.90;;;15.60;99.90;;;;;;6003385;23;20594;-66
2021/09/28 02:33:06;;;;;;;4.20;3.73;;;15.50;99.90;;;;;;6003361;23;20228;-67
2021/09/28 02:35:32;;;;;;;4.53;3.10;;;15.50;99.90;;;;;;6000654;23;20553;-66
2021/09/28 02:37:59;;;;;;;6.00;3.57;;;15.50;99.90;;;;;;6001711;23;20791;-66
2021/09/28 02:40:25;;;;;;;5.70;4.07;;;15.50;99.90;;;;;;6003491;23;20529;-66
2021/09/28 02:42:52;;;;;;;6.90;3.77;;;15.40;99.90;;;;;;5977791;23;20709;-66
2021/09/28 02:45:18;;;;;;;4.80;3.43;;;15.40;99.90;;;;;;6002548;23;20545;-66
2021/09/28 02:47:44;;;;;;;6.27;3.60;;;15.40;99.90;;;;;;6002128;23;20633;-66
2021/09/28 02:50:13;;;;;;;5.87;3.27;;;15.40;99.90;;;;;;5976704;23;20570;-66
2021/09/28 02:52:39;;;;;;;4.87;3.47;;;15.40;99.90;;;;;;6002605;23;20320;-66
2021/09/28 02:55:08;;;;;;;3.30;3.00;;;15.40;99.90;;;;;;5977641;23;20916;-66
2021/09/28 02:57:34;;;;;;;4.67;3.00;;;15.30;99.90;;;;;;6000729;23;20326;-66
2021/09/28 02:59:59;;;;;;;6.53;4.00;;;15.40;99.90;;;;;;6001221;23;20634;-66
2021/09/28 03:02:25;;;;;;;4.60;3.40;;;15.40;99.90;;;;;;6001654;23;20498;-66
2021/09/28 03:04:50;;;;;;;3.60;3.03;;;15.30;99.90;;;;;;6001785;23;20212;-65
2021/09/28 03:07:16;;;;;;;5.40;3.20;;;15.30;99.90;;;;;;6000222;23;20209;-66
2021/09/28 03:09:44;;;;;;;5.40;3.50;;;15.30;99.90;;;;;;6003434;23;20157;-67
2021/09/28 03:12:10;;;;;;;6.27;3.30;;;15.30;99.90;;;;;;6003835;23;20216;-66
2021/09/28 03:14:35;;;;;;;4.03;2.90;;;15.20;99.90;;;;;;6001876;23;20549;-67
2021/09/28 03:17:06;;;;;;;4.70;3.10;;;15.20;99.90;;;;;;5977134;23;20304;-66
2021/09/28 03:19:37;;;;;;;5.50;3.60;;;15.20;99.90;;;;;;6003198;23;20498;-66
2021/09/28 03:22:05;;;;;;;3.80;3.27;;;15.20;99.90;;;;;;6002876;23;20511;-66
2021/09/28 03:24:33;;;;;;;5.33;3.50;;;15.10;99.90;;;;;;5978070;23;20577;-66
2021/09/28 03:26:59;;;;;;;4.30;3.10;;;15.10;99.90;;;;;;6000773;23;21182;-66
2021/09/28 03:29:26;;;;;;;5.50;3.30;;;15.20;99.90;;;;;;6003017;23;20667;-66
2021/09/28 03:31:52;;;;;;;3.80;3.00;;;15.10;99.90;;;;;;6002096;23;20185;-66
2021/09/28 03:34:17;;;;;;;6.20;3.70;;;15.10;99.90;;;;;;6002095;23;20538;-66
2021/09/28 03:36:43;;;;;;;4.43;3.70;;;15.10;99.90;;;;;;6001491;23;20205;-66
2021/09/28 03:39:10;;;;;;;4.90;3.70;;;15.10;99.90;;;;;;6002494;23;20243;-66
2021/09/28 03:41:42;;;;;;;3.00;2.80;;;15.10;99.90;;;;;;6003531;23;20232;-66
2021/09/28 03:44:08;;;;;;;3.97;3.57;;;15.00;99.90;;;;;;6002619;23;20698;-66
2021/09/28 03:46:35;;;;;;;5.90;3.70;;;15.00;99.90;;;;;;6001806;23;20621;-66
2021/09/28 03:49:01;;;;;;;4.00;3.60;;;15.00;99.90;;;;;;6000737;23;20181;-65
2021/09/28 03:51:26;;;;;;;3.80;3.50;;;15.00;99.90;;;;;;6002479;23;20541;-66
2021/09/28 03:53:53;;;;;;;4.73;3.50;;;14.90;99.90;;;;;;6002495;23;20241;-67
2021/09/28 03:56:21;;;;;;;6.20;3.87;;;14.90;99.90;;;;;;6002016;23;20215;-67
2021/09/28 03:58:47;;;;;;;4.80;4.23;;;15.00;99.90;;;;;;6001823;23;20584;-66
2021/09/28 04:01:18;;;;;;;6.93;4.43;;;14.90;99.90;;;;;;6001479;23;20541;-66
2021/09/28 04:03:45;;;;;;;8.17;4.50;;;14.80;99.90;;;;;;6002515;23;20165;-67
2021/09/28 04:06:11;;;;;;;5.37;4.53;;;14.80;99.90;;;;;;6000450;23;20642;-67
2021/09/28 04:08:37;;;;;;;5.30;4.80;;;14.80;99.90;;;;;;6001864;23;20663;-67
2021/09/28 04:11:02;;;;;;;5.13;4.73;;;14.80;99.90;;;;;;6003648;23;20195;-67
2021/09/28 04:13:31;;;;;;;6.80;4.50;;;14.80;99.90;;;;;;5986555;23;20191;-67
2021/09/28 04:15:57;;;;;;;7.80;4.63;;;14.80;99.90;;;;;;6009640;23;20631;-68
2021/09/28 04:18:27;;;;;;;7.00;5.20;;;14.70;99.90;;;;;;5982954;23;20605;-67
2021/09/28 04:20:56;;;;;;;7.30;5.77;;;14.70;99.90;;;;;;6008430;23;20234;-67
2021/09/28 04:23:21;;;;;;;6.87;5.27;;;14.60;99.90;;;;;;6003020;23;20920;-66
2021/09/28 04:25:49;;;;;;;7.10;6.40;;;14.60;99.90;;;;;;5976049;23;20700;-66
2021/09/28 04:28:15;;;;;;;6.63;5.60;;;14.60;99.90;;;;;;6002797;23;20196;-68
2021/09/28 04:30:41;;;;;;;6.83;5.43;;;14.60;99.90;;;;;;6003619;23;20585;-66
2021/09/28 04:33:11;;;;;;;6.53;5.13;;;14.60;99.90;;;;;;5979677;23;20169;-67
2021/09/28 04:35:40;;;;;;;8.50;6.17;;;14.60;99.90;;;;;;6012660;23;20145;-66
2021/09/28 04:38:05;;;;;;;7.73;6.23;;;14.60;99.90;;;;;;6028103;23;20566;-67
2021/09/28 04:40:31;;;;;;;6.40;5.23;;;14.60;99.90;;;;;;6001999;23;20623;-66
2021/09/28 04:42:56;;;;;;;7.50;5.53;;;14.50;99.90;;;;;;6020030;23;20176;-66
2021/09/28 04:45:22;;;;;;;6.77;5.83;;;14.50;99.90;;;;;;6005513;23;21028;-66
2021/09/28 04:47:47;;;;;;;6.47;5.83;;;14.50;99.90;;;;;;5981830;23;20264;-66
2021/09/28 04:50:16;;;;;;;6.30;5.70;;;14.50;99.90;;;;;;5980563;23;20622;-66
2021/09/28 04:52:41;;;;;;;6.47;5.87;;;14.50;99.90;;;;;;6005786;23;20172;-66
2021/09/28 04:55:07;;;;;;;6.40;5.80;;;14.50;99.90;;;;;;6002966;23;20537;-66
2021/09/28 04:57:35;;;;;;;8.20;6.00;;;14.50;99.90;;;;;;6004914;23;20690;-66
2021/09/28 05:00:01;;;;;;;6.80;6.10;;;14.50;99.90;;;;;;6007110;23;20551;-66
2021/09/28 05:02:26;;;;;;;7.60;6.03;;;14.40;99.90;;;;;;6003132;23;20641;-67
2021/09/28 05:04:52;;;;;;;6.97;6.10;;;14.40;99.90;;;;;;6003434;23;20161;-67
2021/09/28 05:07:20;;;;;;;7.80;6.50;;;14.40;99.90;;;;;;6003546;23;20231;-66
2021/09/28 05:09:46;;;;;;;6.87;5.90;;;14.40;99.90;;;;;;6006157;23;20153;-66
2021/09/28 05:12:11;;;;;;;8.27;6.07;;;14.40;99.90;;;;;;6004836;23;20514;-66
2021/09/28 05:14:37;;;;;;;7.47;6.30;;;14.40;99.90;;;;;;6005317;23;20184;-66
2021/09/28 05:17:02;;;;;;;6.43;5.83;;;14.30;99.90;;;;;;5978653;23;20687;-67
2021/09/28 05:19:33;;;;;;;7.40;6.20;;;14.30;99.90;;;;;;5999396;23;20169;-67
2021/09/28 05:22:02;;;;;;;7.10;6.30;;;14.30;99.90;;;;;;6000124;23;20644;-67
2021/09/28 05:24:30;;;;;;;6.43;5.83;;;14.20;99.90;;;;;;6000590;23;20883;-67
2021/09/28 05:26:55;;;;;;;8.00;5.60;;;14.20;99.90;;;;;;6000764;23;20593;-67
2021/09/28 05:29:21;;;;;;;5.73;5.23;;;14.30;99.90;;;;;;6004397;23;20935;-67
2021/09/28 05:31:49;;;;;;;6.43;5.73;;;14.30;99.90;;;;;;6000247;23;20169;-66
2021/09/28 05:34:16;;;;;;;8.30;6.47;;;14.20;99.90;;;;;;6002376;23;20157;-66
2021/09/28 05:36:41;;;;;;;7.53;6.60;;;14.20;99.90;;;;;;5980735;23;20628;-67
2021/09/28 05:39:07;;;;;;;6.90;5.67;;;14.20;99.90;;;;;;6006640;23;20643;-67
2021/09/28 05:41:32;;;;;;;9.67;5.67;;;14.20;99.90;;;;;;6005702;23;20165;-67
2021/09/28 05:43:58;;;;;;;6.80;5.27;;;14.20;99.90;;;;;;6003065;23;20216;-66
2021/09/28 05:46:26;;;;;;;7.80;5.40;;;14.10;99.90;;;;;;6000792;23;20802;-66
2021/09/28 05:48:52;;;;;;;6.70;5.67;;;14.10;99.90;;;;;;6002310;23;20576;-66
2021/09/28 05:51:20;;;;;;;10.43;6.17;;;14.10;99.90;;;;;;6002745;23;20542;-66
2021/09/28 05:53:46;;;;;;;6.10;5.00;;;14.10;99.90;;;;;;6005505;23;20165;-67
2021/09/28 05:56:13;;;;;;;8.97;5.60;;;14.10;99.90;;;;;;5980496;23;20612;-67
2021/09/28 05:58:41;;;;;;;8.50;5.50;;;14.20;99.90;;;;;;6004648;23;20250;-67
2021/09/28 06:01:06;;;;;;;8.33;5.50;;;14.20;99.90;;;;;;5979044;23;20612;-66
2021/09/28 06:03:32;;;;;;;7.13;5.80;;;14.10;99.90;;;;;;5976142;23;20633;-67
2021/09/28 06:05:58;;;;;;;7.57;6.47;;;14.10;99.90;;;;;;6000577;23;20229;-67
2021/09/28 06:08:23;;;;;;;6.13;5.53;;;14.10;99.90;;;;;;6004839;23;20751;-67
2021/09/28 06:10:49;;;;;;;6.60;5.57;;;14.10;99.90;;;;;;6008051;23;20207;-67
2021/09/28 06:13:15;;;;;;;6.23;5.73;;;14.10;99.90;;;;;;6004854;23;20161;-66
2021/09/28 06:15:40;;;;;;;7.73;6.90;;;14.10;99.90;;;;;;6006655;23;20205;-67
2021/09/28 06:18:06;;;;;;;9.67;7.33;;;14.20;99.90;;;;;;6004523;23;20630;-67
2021/09/28 06:20:32;;;;;;;10.03;6.63;;;14.20;99.90;;;;;;6007920;23;20168;-67
2021/09/28 06:22:58;;;;;;;7.63;6.80;;;14.20;99.90;;;;;;5980323;23;20224;-67
2021/09/28 06:25:24;;;;;;;7.70;6.00;;;14.20;99.90;;;;;;6005675;23;20177;-67
2021/09/28 06:27:50;;;;;;;7.47;6.00;;;14.20;99.90;;;;;;5981841;23;20607;-67
2021/09/28 06:30:15;;;;;;;6.63;6.03;;;14.20;99.90;;;;;;6006529;23;20167;-66
2021/09/28 06:32:41;;;;;;;7.07;5.90;;;14.30;99.90;;;;;;5981168;23;20222;-67
2021/09/28 06:35:07;;;;;;;7.43;6.20;;;14.30;99.90;;;;;;5981029;23;20177;-66
2021/09/28 06:37:33;;;;;;;7.67;5.30;;;14.30;99.90;;;;;;5981389;23;20560;-66
2021/09/28 06:39:58;;;;;;;10.47;4.97;;;14.30;99.90;;;;;;5983152;23;20176;-67
2021/09/28 06:42:29;;;;;;;7.23;5.40;;;14.30;99.90;;;;;;6007083;23;20619;-66
2021/09/28 06:44:55;;;;;;;6.10;5.00;;;14.30;99.90;;;;;;5982825;23;20161;-67
2021/09/28 06:47:24;;;;;;;7.40;5.40;;;14.30;99.90;;;;;;5979426;23;20611;-67
2021/09/28 06:49:49;;;;;;;7.47;4.97;;;14.30;99.90;;;;;;5980806;23;20196;-67
2021/09/28 06:52:15;;;;;;;5.87;5.00;;;14.40;99.90;;;;;;5982699;23;20617;-67
2021/09/28 06:54:40;;;;;;;7.20;5.47;;;14.40;99.90;;;;;;6007517;23;20212;-67
2021/09/28 06:57:06;;;;;;;8.67;5.07;;;14.40;99.90;;;;;;5980396;23;20213;-67
2021/09/28 06:59:35;;;;;;;7.60;4.90;;;14.40;99.90;;;;;;6006528;23;20184;-67
2021/09/28 07:02:01;;;;;;;4.83;4.33;;;14.40;99.90;;;;;;6006271;23;20236;-67
2021/09/28 07:04:26;;;;;;;6.20;4.47;;;14.40;99.90;;;;;;5980334;23;20645;-67
2021/09/28 07:06:52;;;;;;;6.83;4.50;;;14.40;99.90;;;;;;6003004;23;21449;-67
2021/09/28 07:09:18;;;;;;;5.97;4.80;;;14.40;99.90;;;;;;5978328;23;20623;-67
2021/09/28 07:11:43;;;;;;;4.70;4.30;;;14.40;99.90;;;;;;5980916;23;21209;-66
2021/09/28 07:14:09;;;;;;;7.20;5.10;;;14.40;99.90;;;;;;6006007;23;20205;-67
2021/09/28 07:16:35;;;;;;;5.97;4.80;;;14.40;99.90;;;;;;5979149;23;20204;-67
2021/09/28 07:19:03;;;;;;;6.40;4.80;;;14.40;99.90;;;;;;6004611;23;20181;-66
2021/09/28 07:21:29;;;;;;;5.50;4.50;;;14.40;99.90;;;;;;6007950;23;20192;-67
2021/09/28 07:23:55;;;;;;;6.33;4.23;;;14.40;99.90;;;;;;5983347;23;20616;-68
2021/09/28 07:26:20;;;;;;;7.63;4.30;;;14.40;99.90;;;;;;6012350;23;20594;-66
2021/09/28 07:28:49;;;;;;;7.87;4.13;;;14.50;99.90;;;;;;6000027;23;20188;-66
2021/09/28 07:31:15;;;;;;;12.20;5.17;;;14.60;99.90;;;;;;5998908;23;20624;-67
2021/09/28 07:33:41;;;;;;;6.80;4.80;;;14.60;99.90;;;;;;6011204;23;20542;-66
2021/09/28 07:36:07;;;;;;;7.93;4.40;;;14.70;99.90;;;;;;5979872;23;20201;-67
2021/09/28 07:38:34;;;;;;;11.40;4.50;;;14.70;99.90;;;;;;6006890;23;20532;-67
2021/09/28 07:41:00;;;;;;;7.70;4.73;;;14.70;99.90;;;;;;5981132;23;21152;-67
2021/09/28 07:43:25;;;;;;;7.17;4.73;;;14.70;99.90;;;;;;6006117;23;20677;-66
2021/09/28 07:45:51;;;;;;;5.60;4.50;;;14.70;99.90;;;;;;5977787;23;21189;-66
2021/09/28 07:48:17;;;;;;;4.33;4.00;;;14.80;99.90;;;;;;6005677;23;20248;-66
2021/09/28 07:50:43;;;;;;;6.83;3.93;;;14.80;99.90;;;;;;5981633;23;21147;-66
2021/09/28 07:53:09;;;;;;;4.87;4.07;;;14.80;99.90;;;;;;5981577;23;20256;-66
2021/09/28 07:55:36;;;;;;;6.03;4.40;;;14.80;99.90;;;;;;5993053;23;20164;-65
2021/09/28 07:58:03;;;;;;;9.70;4.50;;;14.90;99.90;;;;;;6006407;23;20237;-65
2021/09/28 08:00:28;;;;;;;5.23;3.83;;;14.90;99.90;;;;;;5982296;23;20568;-66
2021/09/28 08:02:56;;;;;;;5.83;4.00;;;15.00;99.90;;;;;;5980481;23;20617;-66
2021/09/28 08:05:22;;;;;;;4.83;4.20;;;15.00;99.90;;;;;;6003828;23;20217;-66
2021/09/28 08:07:48;;;;;;;5.80;4.10;;;15.00;99.90;;;;;;5980680;23;20589;-66
2021/09/28 08:10:15;;;;;;;5.70;4.50;;;15.10;99.90;;;;;;6006635;23;20173;-66
2021/09/28 08:12:41;;;;;;;6.47;3.80;;;15.10;99.90;;;;;;5979215;23;20533;-67
2021/09/28 08:15:08;;;;;;;7.80;4.40;;;15.10;99.90;;;;;;6006753;23;20549;-66
2021/09/28 08:17:33;;;;;;;5.63;4.50;;;15.20;99.90;;;;;;6003818;23;20632;-66
2021/09/28 08:20:00;;;;;;;4.90;4.27;;;15.20;99.90;;;;;;6003335;23;20534;-66
2021/09/28 08:22:26;;;;;;;4.53;3.30;;;15.20;99.90;;;;;;5981858;23;20189;-67
2021/09/28 08:25:02;;;;;;;5.27;3.30;;;15.30;99.90;;;;;;6006203;23;20562;-67
2021/09/28 08:30:14;;;;;;;8.40;3.43;;;15.40;99.90;;;;;;6005251;23;20602;-68
2021/09/28 08:32:40;;;;;;;5.03;3.03;;;15.40;99.90;;;;;;5981113;23;20570;-66
2021/09/28 08:35:06;;;;;;;4.77;2.37;;;15.50;99.90;;;;;;5981514;23;20661;-67
2021/09/28 08:37:32;;;;;;;3.33;2.73;;;15.60;99.90;;;;;;5980337;23;20236;-68
2021/09/28 08:39:58;;;;;;;2.93;2.43;;;15.70;99.90;;;;;;5982515;23;20579;-68
2021/09/28 08:42:25;;;;;;;3.90;2.90;;;15.70;99.90;;;;;;6005327;23;20527;-68
2021/09/28 08:44:52;;;;;;;4.77;2.53;;;15.80;99.90;;;;;;6005493;23;20164;-67
2021/09/28 08:47:40;;;;;;;3.40;2.17;;;15.90;99.90;;;;;;5981582;23;21187;-67
2021/09/28 08:50:11;;;;;;;4.90;2.40;;;15.90;99.90;;;;;;5978468;23;21096;-68
2021/09/28 08:52:41;;;;;;;3.30;2.30;;;16.00;99.90;;;;;;5980802;23;20658;-66
2021/09/28 08:55:10;;;;;;;5.43;2.03;;;16.00;99.90;;;;;;5981768;23;21159;-68
2021/09/28 08:57:38;;;;;;;5.23;2.00;;;16.10;99.90;;;;;;5979872;23;21006;-68
2021/09/28 09:00:27;;;;;;;3.30;2.40;;;16.10;99.90;;;;;;6007392;23;21059;-68
2021/09/28 09:02:55;;;;;;;1.97;1.80;;;16.20;99.90;;;;;;6008220;23;20557;-68
2021/09/28 09:05:22;;;;;;;4.13;2.07;;;16.30;99.90;;;;;;5980836;23;20574;-66
2021/09/28 09:08:04;;;;;;;2.00;1.90;;;16.30;99.90;;;;;;6006116;23;20628;-66
2021/09/28 09:10:33;;;;;;;3.40;1.83;;;16.40;99.90;;;;;;5982390;23;20585;-66
2021/09/28 09:13:02;;;;;;;2.07;1.70;;;16.50;99.90;;;;;;5987283;23;20570;-66
2021/09/28 09:15:30;;;;;;;4.00;1.77;;;16.60;99.90;;;;;;6014609;23;20539;-69
2021/09/28 09:17:59;;;;;;;3.63;1.73;;;16.60;99.90;;;;;;5988239;23;20621;-66
2021/09/28 09:20:28;;;;;;;3.50;1.20;;;16.70;99.90;;;;;;5981579;23;20581;-66
2021/09/28 09:23:11;;;;;;;3.97;1.40;;;16.70;99.90;;;;;;5978988;23;20618;-66
2021/09/28 09:25:37;;;;;;;2.70;1.30;;;16.80;99.90;;;;;;5980362;23;20572;-65
2021/09/28 09:28:21;;;;;;;5.20;1.40;;;16.90;99.90;;;;;;5979762;23;20689;-68
2021/09/28 09:30:47;;;;;;;1.53;1.20;;;17.10;99.90;;;;;;5982751;23;20891;-66
2021/09/28 09:33:15;;;;;;;2.23;1.00;;;17.10;99.90;;;;;;6009580;23;20570;-66
2021/09/28 09:35:44;;;;;;;1.97;1.20;;;17.10;99.90;;;;;;6005519;23;20552;-68
2021/09/28 09:38:12;;;;;;;1.77;1.10;;;17.20;99.90;;;;;;5982527;23;21193;-66
2021/09/28 09:40:46;;;;;;;4.00;1.23;;;17.30;99.90;;;;;;5985214;23;20606;-67
2021/09/28 09:43:16;;;;;;;1.83;1.40;;;17.30;99.90;;;;;;5983703;23;20625;-66
2021/09/28 09:45:42;;;;;;;5.57;1.50;;;17.30;99.90;;;;;;6006972;23;20956;-67
2021/09/28 09:48:28;;;;;;;4.13;1.20;;;17.40;99.90;;;;;;5984063;23;21156;-67
2021/09/28 09:51:19;;;;;;;1.70;1.07;;;17.50;99.90;;;;;;6008197;23;20142;-66
2021/09/28 09:53:55;;;;;;;7.00;1.50;;;17.50;99.90;;;;;;5991097;23;20585;-66
2021/09/28 09:56:39;;;;;;;2.93;1.30;;;17.60;99.90;;;;;;5982183;23;20637;-65
2021/09/28 09:59:04;;;;;;;2.37;1.20;;;17.60;99.90;;;;;;5981303;23;20613;-66
2021/09/28 10:01:30;;;;;;;3.10;1.10;;;17.70;99.90;;;;;;6006117;23;20619;-67
2021/09/28 10:03:56;;;;;;;3.87;1.23;;;17.70;99.90;;;;;;5980553;23;20189;-67
2021/09/28 10:06:21;;;;;;;3.63;1.50;;;17.80;99.90;;;;;;6005058;23;20608;-67
2021/09/28 10:08:52;;;;;;;1.83;1.30;;;17.90;99.90;;;;;;5982320;23;20208;-68
2021/09/28 10:11:18;;;;;;;1.93;1.10;;;17.90;99.90;;;;;;6008138;23;20204;-67
2021/09/28 10:13:48;;;;;;;1.43;0.90;;;17.90;99.90;;;;;;5979053;23;20573;-67
2021/09/28 10:16:35;;;;;;;1.93;1.33;;;18.00;99.90;;;;;;6008225;23;20601;-67
2021/09/28 10:19:02;;;;;;;3.23;1.00;;;18.10;99.90;;;;;;5984839;23;20612;-68
2021/09/28 10:21:36;;;;;;;4.20;1.17;;;18.20;99.90;;;;;;5992750;23;20995;-67
2021/09/28 10:24:17;;;;;;;4.37;1.10;;;18.20;99.90;;;;;;6023175;23;20784;-67
2021/09/28 10:27:03;;;;;;;2.30;1.27;;;18.30;99.90;;;;;;5989438;23;20606;-67
2021/09/28 10:29:51;;;;;;;2.13;0.90;;;18.40;99.90;;;;;;5984414;23;20570;-67
2021/09/28 10:32:25;;;;;;;5.60;1.13;;;18.50;99.90;;;;;;5982678;23;20624;-67
2021/09/28 10:35:09;;;;;;;1.63;1.00;;;18.60;99.90;;;;;;5982055;23;20658;-67
2021/09/28 10:37:57;;;;;;;1.73;1.07;;;18.60;99.90;;;;;;6003660;23;20740;-67
2021/09/28 10:40:24;;;;;;;1.30;0.93;;;18.70;99.90;;;;;;5982503;23;20570;-69
2021/09/28 10:43:01;;;;;;;1.40;0.90;;;18.70;99.90;;;;;;5982403;23;20616;-67
2021/09/28 10:45:29;;;;;;;5.20;1.03;;;18.90;99.90;;;;;;6007273;23;20494;-69
2021/09/28 10:48:06;;;;;;;3.17;1.10;;;18.90;99.90;;;;;;6006386;23;20987;-67
2021/09/28 10:50:32;;;;;;;1.00;0.90;;;19.00;99.90;;;;;;5981032;23;20868;-67
2021/09/28 10:53:20;;;;;;;1.53;0.77;;;19.10;99.90;;;;;;5981280;23;20577;-67
2021/09/28 10:56:00;;;;;;;1.67;1.07;;;19.20;99.90;;;;;;5980589;23;20416;-67
2021/09/28 10:58:27;;;;;;;0.97;0.87;;;19.30;99.90;;;;;;5981793;23;21206;-68
2021/09/28 11:00:56;;;;;;;2.63;1.00;;;19.40;99.90;;;;;;5981703;23;20912;-68
2021/09/28 11:03:57;;;;;;;1.43;0.70;;;19.50;99.90;;;;;;5982872;23;20616;-68
2021/09/28 11:06:42;;;;;;;2.40;0.70;;;19.60;99.90;;;;;;6005312;23;20597;-67
2021/09/28 11:09:08;;;;;;;1.00;0.70;;;19.80;99.90;;;;;;6006284;23;20582;-67
2021/09/28 11:11:34;;;;;;;2.93;1.10;;;19.80;99.90;;;;;;5982057;23;20585;-67
2021/09/28 11:14:02;;;;;;;1.20;1.00;;;19.90;99.90;;;;;;6003705;23;20542;-67
2021/09/28 11:16:28;;;;;;;3.10;0.90;;;20.00;99.90;;;;;;5979353;23;20604;-67
2021/09/28 11:18:58;;;;;;;2.10;0.80;;;20.10;99.90;;;;;;5981182;23;20593;-67
2021/09/28 11:21:25;;;;;;;1.47;1.37;;;20.30;99.90;;;;;;6006560;23;20198;-67
2021/09/28 11:23:53;;;;;;;1.77;0.90;;;20.40;99.90;;;;;;5981499;23;21187;-67
2021/09/28 11:26:18;;;;;;;1.20;0.80;;;20.60;99.90;;;;;;5979811;23;20589;-68
2021/09/28 11:28:51;;;;;;;1.73;0.87;;;20.70;99.90;;;;;;6006063;23;20633;-68
2021/09/28 11:31:17;;;;;;;2.00;0.87;;;20.80;99.90;;;;;;6006828;23;20204;-67
2021/09/28 11:33:45;;;;;;;2.43;1.10;;;20.90;99.90;;;;;;5978999;23;20573;-67
2021/09/28 11:36:16;;;;;;;1.90;1.10;;;21.00;99.90;;;;;;6004136;23;20991;-67
2021/09/28 11:38:47;;;;;;;0.97;0.87;;;21.20;99.90;;;;;;6004581;23;20569;-67
2021/09/28 11:41:23;;;;;;;1.77;1.00;;;21.30;99.90;;;;;;5973624;23;20577;-67
2021/09/28 11:43:54;;;;;;;2.60;1.00;;;21.50;99.90;;;;;;5975303;23;21157;-67
2021/09/28 11:46:22;;;;;;;1.07;0.90;;;21.60;99.90;;;;;;6001305;23;20597;-67
2021/09/28 11:49:00;;;;;;;1.13;0.70;;;21.70;99.90;;;;;;6004641;23;20677;-67
2021/09/28 11:51:41;;;;;;;4.53;1.10;;;21.90;99.90;;;;;;6003762;23;20526;-67
2021/09/28 11:54:12;;;;;;;1.13;0.70;;;22.10;99.90;;;;;;6004475;23;20519;-67
2021/09/28 11:56:46;;;;;;;1.83;1.13;;;22.30;99.90;;;;;;5977318;23;21485;-69
2021/09/28 11:59:14;;;;;;;1.60;1.10;;;22.40;99.90;;;;;;5978137;23;21429;-67
2021/09/28 12:01:40;;;;;;;2.23;1.13;;;22.60;99.90;;;;;;6002778;23;20625;-67
2021/09/28 12:07:02;;;;;;;2.43;1.23;;;23.00;99.90;;;;;;6006491;23;20585;-67
2021/09/28 12:09:39;;;;;;;0.97;0.80;;;23.30;99.90;;;;;;6005580;23;20898;-67
2021/09/28 12:12:08;;;;;;;3.20;1.20;;;23.50;99.90;;;;;;6004056;23;20616;-67
2021/09/28 12:14:36;;;;;;;1.83;0.90;;;23.80;99.90;;;;;;5978129;23;20629;-67
2021/09/28 12:17:07;;;;;;;1.20;0.70;;;23.90;99.90;;;;;;6001920;23;20585;-68
2021/09/28 12:19:34;;;;;;;1.30;1.00;;;24.30;99.90;;;;;;6004377;23;21043;-68
2021/09/28 12:21:59;;;;;;;2.77;1.60;;;24.60;99.90;;;;;;5978266;23;20859;-67
2021/09/28 12:24:28;;;;;;;1.40;0.90;;;25.10;99.90;;;;;;5977089;23;20632;-68
2021/09/28 12:27:05;;;;;;;1.50;1.00;;;25.60;99.90;;;;;;6001829;23;20201;-68
2021/09/28 12:29:42;;;;;;;1.47;1.03;;;26.40;99.90;;;;;;6004917;23;21001;-68
2021/09/28 12:32:08;;;;;;;0.80;0.80;;;27.40;99.90;;;;;;6003825;23;20521;-68
2021/09/28 12:35:08;;;;;;;1.83;0.80;;;29.40;99.90;;;;;;6004235;23;20678;-68
2021/09/28 12:37:50;;;;;;;2.30;1.20;;;31.50;99.20;;;;;;5998268;23;20953;-68
2021/09/28 12:40:18;;;;;;;2.00;0.70;;;33.10;90.90;;;;;;6001161;23;20575;-68
2021/09/28 12:42:44;;;;;;;1.57;0.70;;;34.40;82.50;;;;;;6001272;23;20617;-68
2021/09/28 12:45:15;;;;;;;1.27;0.97;;;35.90;73.80;;;;;;6001813;23;21053;-68
2021/09/28 12:47:42;;;;;;;3.53;0.93;;;37.30;69.30;;;;;;6000994;23;20271;-69
2021/09/28 12:50:19;;;;;;;1.77;0.93;;;38.40;65.80;;;;;;6001413;23;20529;-69
2021/09/28 12:52:44;;;;;;;0.97;0.80;;;39.60;60.80;;;;;;5974043;23;20569;-69
2021/09/28 12:55:10;;;;;;;2.20;0.80;;;40.50;59.70;;;;;;6003352;23;20549;-69
2021/09/28 12:57:36;;;;;;;1.40;0.90;;;41.60;55.30;;;;;;5972130;23;20208;-68